Oceania — SQOC — position and weather

sailwx.info

Track history (hours):
 
Tides and Currents Weather Stations Pressure Air Temp Water Temp Dewpoint Dewpoint Depression Visibility Wind Speed Wind Dir Waves Ship Positions

Oceanographic research ship Oceania (Poland)

Detailed information on ship capabilities available from University of Delaware's Ocean Information Center and ARCUS's ALIAS (Arctic Logistics Information and Support) project.

Last reported at 2017-Mar-23 19:33 UTC. Time now 2017-Mar-23 20:16 UTC.
Position N 54°42' E 019°03'.

Length 49 m; beam 9 m.

Type: Sailing vessel. MMSI: 261000142.

Date/timePositionNaut miles runAvg speedWind from/ knotsBaromVisibWave heightAir tempDewpointWater temp
2017-Mar-23 19:33N 54°42' E 019°03'4 3.8
2017-Mar-23 18:29N 54°44' E 019°09'0 0.0
2017-Mar-23 17:32N 54°44' E 019°09'0 0.1
2017-Mar-23 16:31N 54°44' E 019°09'0 0.1
2017-Mar-23 15:33N 54°44' E 019°09'0 0.1
2017-Mar-23 14:28N 54°44' E 019°09'0 0.0
2017-Mar-23 13:28N 54°44' E 019°09'0 0.0
2017-Mar-23 12:31N 54°44' E 019°09'0 0.0
2017-Mar-23 11:28N 54°44' E 019°09'0 0.2
2017-Mar-23 10:33N 54°44' E 019°09'0 0.0
2017-Mar-23 09:24N 54°44' E 019°09'0 0.1
2017-Mar-23 08:30N 54°44' E 019°09'1 0.9
2017-Mar-23 07:33N 54°45' E 019°10'0 0.4
2017-Mar-23 06:32N 54°45' E 019°10'0 0.2
2017-Mar-23 05:33N 54°46' E 019°10'0 0.2
2017-Mar-23 04:32N 54°46' E 019°10'0 0.0
2017-Mar-23 03:29N 54°46' E 019°10'0 0.0
2017-Mar-23 02:32N 54°45' E 019°10'0 0.0
2017-Mar-23 01:32N 54°45' E 019°10'0 0.0
2017-Mar-23 00:32N 54°45' E 019°10'0 0.0
2017-Mar-22 23:32N 54°45' E 019°10'0 0.0
2017-Mar-22 22:32N 54°45' E 019°10'0 0.0
2017-Mar-22 21:32N 54°45' E 019°10'0 0.0
2017-Mar-22 20:32N 54°45' E 019°10'0 0.0
2017-Mar-22 19:32N 54°45' E 019°10'0 0.0
2017-Mar-22 18:32N 54°45' E 019°10'0 0.1
2017-Mar-22 17:32N 54°45' E 019°10'0 0.0
2017-Mar-22 16:32N 54°45' E 019°10'0 0.0
2017-Mar-22 15:32N 54°45' E 019°10'0 0.0
2017-Mar-22 14:32N 54°45' E 019°10'0 0.0
2017-Mar-22 13:32N 54°45' E 019°10'0 0.1
2017-Mar-22 12:32N 54°45' E 019°10'6 6.6
2017-Mar-22 11:33N 54°41' E 019°03'1010.0
2017-Mar-22 10:33N 54°35' E 018°48'1 1.0
2017-Mar-22 09:33N 54°36' E 018°48'0 0.0
2017-Mar-22 08:33N 54°36' E 018°48'0 0.0
2017-Mar-22 07:33N 54°36' E 018°48'0 0.0
2017-Mar-22 06:33N 54°36' E 018°48'0 0.0
2017-Mar-22 05:33N 54°36' E 018°48'0 0.0
2017-Mar-22 04:33N 54°36' E 018°48'0 0.0
2017-Mar-22 03:33N 54°36' E 018°48'0 0.0
2017-Mar-22 02:33N 54°36' E 018°48'0 0.0
2017-Mar-22 01:33N 54°36' E 018°48'0 0.0
2017-Mar-22 00:33N 54°36' E 018°48'0 0.0
2017-Mar-21 23:33N 54°36' E 018°48'0 0.0
2017-Mar-21 22:33N 54°36' E 018°48'0 0.0
2017-Mar-21 21:33N 54°36' E 018°48'0 0.0
2017-Mar-21 20:33N 54°36' E 018°48'0 0.0
2017-Mar-21 19:33N 54°36' E 018°48'0 0.0
2017-Mar-21 18:33N 54°36' E 018°48'0 0.0
2017-Mar-21 17:33N 54°36' E 018°48'6 6.1
2017-Mar-21 16:33N 54°40' E 018°56'9 9.0
2017-Mar-21 15:30N 54°45' E 019°10'0 0.2
2017-Mar-21 14:33N 54°45' E 019°10'0 0.0
2017-Mar-21 13:33N 54°45' E 019°10'0 0.0
2017-Mar-21 12:33N 54°45' E 019°10'0 0.3
2017-Mar-21 11:31N 54°45' E 019°10'0 0.0
2017-Mar-21 10:31N 54°45' E 019°10'0 0.0
2017-Mar-21 09:31N 54°45' E 019°10'4 3.7
2017-Mar-21 08:33N 54°46' E 019°04'1010.4
2017-Mar-21 07:33N 54°48' E 018°47'1110.8
2017-Mar-21 06:33N 54°51' E 018°29'103 6.7
2017-Mar-20 15:12N 55°21' E 015°37'0 0.0
2017-Mar-20 03:31N 55°21' E 015°37'0 0.0
2017-Mar-20 02:25N 55°21' E 015°37'0 0.0
2017-Mar-20 01:25N 55°21' E 015°37'0 0.0
2017-Mar-19 23:25N 55°21' E 015°37'0 0.0
2017-Mar-19 20:31N 55°21' E 015°37'0 0.1
2017-Mar-19 19:31N 55°21' E 015°37'0 0.1
2017-Mar-19 14:16N 55°22' E 015°37'0 0.0
2017-Mar-19 12:31N 55°22' E 015°37'0 0.0
2017-Mar-19 11:25N 55°21' E 015°37'4 1.3
2017-Mar-19 08:31N 55°18' E 015°35'9 9.5
2017-Mar-19 07:33N 55°11' E 015°24'9 9.4
2017-Mar-19 06:33N 55°04' E 015°14'3 3.0
2017-Mar-19 05:24N 55°01' E 015°10'1 0.1
2017-Mar-18 16:33N 55°02' E 015°12'11 9.9
2017-Mar-18 15:24N 55°11' E 015°24'3 0.4
2017-Mar-18 07:23N 55°14' E 015°27'910.3
2017-Mar-18 06:33N 55°09' E 015°15'0 0.1
2017-Mar-18 05:11N 55°09' E 015°15'0 0.0
2017-Mar-18 04:17N 55°09' E 015°15'0 0.0
2017-Mar-18 03:29N 55°09' E 015°15'0 0.0
2017-Mar-18 01:23N 55°09' E 015°15'0 0.0
2017-Mar-17 22:23N 55°09' E 015°15'0 0.0
2017-Mar-17 20:11N 55°09' E 015°15'0 0.0
2017-Mar-17 19:29N 55°09' E 015°15'0 0.0
2017-Mar-17 11:11N 55°09' E 015°15'0 0.0
2017-Mar-17 10:23N 55°09' E 015°15'0 0.0
2017-Mar-17 07:23N 55°09' E 015°15'0 0.0
2017-Mar-17 06:23N 55°09' E 015°15'0 0.0
2017-Mar-17 05:29N 55°09' E 015°15'3 3.6
2017-Mar-17 04:33N 55°11' E 015°19'7 5.8
2017-Mar-17 03:18N 55°16' E 015°28'0 0.1
2017-Mar-17 01:30N 55°16' E 015°28'0 0.0
2017-Mar-17 00:18N 55°16' E 015°28'0 0.0
2017-Mar-16 17:30N 55°16' E 015°28'0 0.1
2017-Mar-16 15:22N 55°16' E 015°29'0 0.0
2017-Mar-16 14:16N 55°16' E 015°29'0 0.0
2017-Mar-16 13:28N 55°16' E 015°29'0 0.0
2017-Mar-16 12:10N 55°16' E 015°29'1 0.2
2017-Mar-16 08:31N 55°16' E 015°29'8 7.5
2017-Mar-16 07:31N 55°11' E 015°18'1 0.8
2017-Mar-16 06:29N 55°11' E 015°17'0 0.0
2017-Mar-16 05:29N 55°11' E 015°17'0 0.1
2017-Mar-16 04:33N 55°11' E 015°18'116 4.1
2017-Mar-15 00:33N 54°47' E 018°35'9 8.6
2017-Mar-14 23:33N 54°41' E 018°46'10 9.5
2017-Mar-14 22:33N 54°33' E 018°53'3 2.9
2017-Mar-14 21:31N 54°29' E 018°53'0 0.0
2017-Mar-14 20:31N 54°29' E 018°53'0 0.1
2017-Mar-14 19:31N 54°29' E 018°53'0 0.0
2017-Mar-14 18:31N 54°29' E 018°53'0 0.0
2017-Mar-14 17:31N 54°29' E 018°53'0 0.1
2017-Mar-14 16:31N 54°29' E 018°53'0 0.1
2017-Mar-14 15:31N 54°29' E 018°53'0 0.0
2017-Mar-14 14:31N 54°29' E 018°53'0 0.0
2017-Mar-14 13:31N 54°29' E 018°53'0 0.0
2017-Mar-14 12:31N 54°29' E 018°53'7 7.8
2017-Mar-14 11:33N 54°27' E 018°41'3 2.9
2017-Mar-14 10:31N 54°24' E 018°40'0 0.0
2017-Mar-14 09:31N 54°24' E 018°40'0 0.0
2017-Mar-14 08:28N 54°24' E 018°40'0 0.0
2017-Mar-14 07:31N 54°24' E 018°40'0 0.0
2017-Mar-14 06:31N 54°24' E 018°40'0 0.0
2017-Mar-14 05:31N 54°24' E 018°40'0 0.0
2017-Mar-14 04:31N 54°24' E 018°40'0 0.0
2017-Mar-14 03:31N 54°24' E 018°40'0 0.0
2017-Mar-14 02:31N 54°24' E 018°40'0 0.0
2017-Mar-14 01:31N 54°24' E 018°40'0 0.0
2017-Mar-14 00:31N 54°24' E 018°40'0 0.0
2017-Mar-13 23:31N 54°24' E 018°40'0 0.0
2017-Mar-13 22:31N 54°24' E 018°40'0 0.0
2017-Mar-13 21:31N 54°24' E 018°40'0 0.0
2017-Mar-13 20:31N 54°24' E 018°40'  
Track history (hours):
 
Tides and Currents Weather Stations Pressure Air Temp Water Temp Dewpoint Dewpoint Depression Visibility Wind Speed Wind Dir Waves Ship Positions

Oceanographic research ship Oceania (Poland)

Detailed information on ship capabilities available from University of Delaware's Ocean Information Center and ARCUS's ALIAS (Arctic Logistics Information and Support) project.

Last reported at 2017-Mar-23 19:33 UTC. Time now 2017-Mar-23 20:16 UTC.
Position N 54°42' E 019°03'.

Length 49 m; beam 9 m.

Type: Sailing vessel. MMSI: 261000142.

Date/timePositionNaut miles runAvg speedWind from/ knotsBaromVisibWave heightAir tempDewpointWater temp
2017-Mar-23 19:33N 54°42' E 019°03'4 3.8
2017-Mar-23 18:29N 54°44' E 019°09'0 0.0
2017-Mar-23 17:32N 54°44' E 019°09'0 0.1
2017-Mar-23 16:31N 54°44' E 019°09'0 0.1
2017-Mar-23 15:33N 54°44' E 019°09'0 0.1
2017-Mar-23 14:28N 54°44' E 019°09'0 0.0
2017-Mar-23 13:28N 54°44' E 019°09'0 0.0
2017-Mar-23 12:31N 54°44' E 019°09'0 0.0
2017-Mar-23 11:28N 54°44' E 019°09'0 0.2
2017-Mar-23 10:33N 54°44' E 019°09'0 0.0
2017-Mar-23 09:24N 54°44' E 019°09'0 0.1
2017-Mar-23 08:30N 54°44' E 019°09'1 0.9
2017-Mar-23 07:33N 54°45' E 019°10'0 0.4
2017-Mar-23 06:32N 54°45' E 019°10'0 0.2
2017-Mar-23 05:33N 54°46' E 019°10'0 0.2
2017-Mar-23 04:32N 54°46' E 019°10'0 0.0
2017-Mar-23 03:29N 54°46' E 019°10'0 0.0
2017-Mar-23 02:32N 54°45' E 019°10'0 0.0
2017-Mar-23 01:32N 54°45' E 019°10'0 0.0
2017-Mar-23 00:32N 54°45' E 019°10'0 0.0
2017-Mar-22 23:32N 54°45' E 019°10'0 0.0
2017-Mar-22 22:32N 54°45' E 019°10'0 0.0
2017-Mar-22 21:32N 54°45' E 019°10'0 0.0
2017-Mar-22 20:32N 54°45' E 019°10'0 0.0
2017-Mar-22 19:32N 54°45' E 019°10'0 0.0
2017-Mar-22 18:32N 54°45' E 019°10'0 0.1
2017-Mar-22 17:32N 54°45' E 019°10'0 0.0
2017-Mar-22 16:32N 54°45' E 019°10'0 0.0
2017-Mar-22 15:32N 54°45' E 019°10'0 0.0
2017-Mar-22 14:32N 54°45' E 019°10'0 0.0
2017-Mar-22 13:32N 54°45' E 019°10'0 0.1
2017-Mar-22 12:32N 54°45' E 019°10'6 6.6
2017-Mar-22 11:33N 54°41' E 019°03'1010.0
2017-Mar-22 10:33N 54°35' E 018°48'1 1.0
2017-Mar-22 09:33N 54°36' E 018°48'0 0.0
2017-Mar-22 08:33N 54°36' E 018°48'0 0.0
2017-Mar-22 07:33N 54°36' E 018°48'0 0.0
2017-Mar-22 06:33N 54°36' E 018°48'0 0.0
2017-Mar-22 05:33N 54°36' E 018°48'0 0.0
2017-Mar-22 04:33N 54°36' E 018°48'0 0.0
2017-Mar-22 03:33N 54°36' E 018°48'0 0.0
2017-Mar-22 02:33N 54°36' E 018°48'0 0.0
2017-Mar-22 01:33N 54°36' E 018°48'0 0.0
2017-Mar-22 00:33N 54°36' E 018°48'0 0.0
2017-Mar-21 23:33N 54°36' E 018°48'0 0.0
2017-Mar-21 22:33N 54°36' E 018°48'0 0.0
2017-Mar-21 21:33N 54°36' E 018°48'0 0.0
2017-Mar-21 20:33N 54°36' E 018°48'0 0.0
2017-Mar-21 19:33N 54°36' E 018°48'0 0.0
2017-Mar-21 18:33N 54°36' E 018°48'0 0.0
2017-Mar-21 17:33N 54°36' E 018°48'6 6.1
2017-Mar-21 16:33N 54°40' E 018°56'9 9.0
2017-Mar-21 15:30N 54°45' E 019°10'0 0.2
2017-Mar-21 14:33N 54°45' E 019°10'0 0.0
2017-Mar-21 13:33N 54°45' E 019°10'0 0.0
2017-Mar-21 12:33N 54°45' E 019°10'0 0.3
2017-Mar-21 11:31N 54°45' E 019°10'0 0.0
2017-Mar-21 10:31N 54°45' E 019°10'0 0.0
2017-Mar-21 09:31N 54°45' E 019°10'4 3.7
2017-Mar-21 08:33N 54°46' E 019°04'1010.4
2017-Mar-21 07:33N 54°48' E 018°47'1110.8
2017-Mar-21 06:33N 54°51' E 018°29'103 6.7
2017-Mar-20 15:12N 55°21' E 015°37'0 0.0
2017-Mar-20 03:31N 55°21' E 015°37'0 0.0
2017-Mar-20 02:25N 55°21' E 015°37'0 0.0
2017-Mar-20 01:25N 55°21' E 015°37'0 0.0
2017-Mar-19 23:25N 55°21' E 015°37'0 0.0
2017-Mar-19 20:31N 55°21' E 015°37'0 0.1
2017-Mar-19 19:31N 55°21' E 015°37'0 0.1
2017-Mar-19 14:16N 55°22' E 015°37'0 0.0
2017-Mar-19 12:31N 55°22' E 015°37'0 0.0
2017-Mar-19 11:25N 55°21' E 015°37'4 1.3
2017-Mar-19 08:31N 55°18' E 015°35'9 9.5
2017-Mar-19 07:33N 55°11' E 015°24'9 9.4
2017-Mar-19 06:33N 55°04' E 015°14'3 3.0
2017-Mar-19 05:24N 55°01' E 015°10'1 0.1
2017-Mar-18 16:33N 55°02' E 015°12'11 9.9
2017-Mar-18 15:24N 55°11' E 015°24'3 0.4
2017-Mar-18 07:23N 55°14' E 015°27'910.3
2017-Mar-18 06:33N 55°09' E 015°15'0 0.1
2017-Mar-18 05:11N 55°09' E 015°15'0 0.0
2017-Mar-18 04:17N 55°09' E 015°15'0 0.0
2017-Mar-18 03:29N 55°09' E 015°15'0 0.0
2017-Mar-18 01:23N 55°09' E 015°15'0 0.0
2017-Mar-17 22:23N 55°09' E 015°15'0 0.0
2017-Mar-17 20:11N 55°09' E 015°15'0 0.0
2017-Mar-17 19:29N 55°09' E 015°15'0 0.0
2017-Mar-17 11:11N 55°09' E 015°15'0 0.0
2017-Mar-17 10:23N 55°09' E 015°15'0 0.0
2017-Mar-17 07:23N 55°09' E 015°15'0 0.0
2017-Mar-17 06:23N 55°09' E 015°15'0 0.0
2017-Mar-17 05:29N 55°09' E 015°15'3 3.6
2017-Mar-17 04:33N 55°11' E 015°19'7 5.8
2017-Mar-17 03:18N 55°16' E 015°28'0 0.1
2017-Mar-17 01:30N 55°16' E 015°28'0 0.0
2017-Mar-17 00:18N 55°16' E 015°28'0 0.0
2017-Mar-16 17:30N 55°16' E 015°28'0 0.1
2017-Mar-16 15:22N 55°16' E 015°29'0 0.0
2017-Mar-16 14:16N 55°16' E 015°29'0 0.0
2017-Mar-16 13:28N 55°16' E 015°29'0 0.0
2017-Mar-16 12:10N 55°16' E 015°29'1 0.2
2017-Mar-16 08:31N 55°16' E 015°29'8 7.5
2017-Mar-16 07:31N 55°11' E 015°18'1 0.8
2017-Mar-16 06:29N 55°11' E 015°17'0 0.0
2017-Mar-16 05:29N 55°11' E 015°17'0 0.1
2017-Mar-16 04:33N 55°11' E 015°18'116 4.1
2017-Mar-15 00:33N 54°47' E 018°35'9 8.6
2017-Mar-14 23:33N 54°41' E 018°46'10 9.5
2017-Mar-14 22:33N 54°33' E 018°53'3 2.9
2017-Mar-14 21:31N 54°29' E 018°53'0 0.0
2017-Mar-14 20:31N 54°29' E 018°53'0 0.1
2017-Mar-14 19:31N 54°29' E 018°53'0 0.0
2017-Mar-14 18:31N 54°29' E 018°53'0 0.0
2017-Mar-14 17:31N 54°29' E 018°53'0 0.1
2017-Mar-14 16:31N 54°29' E 018°53'0 0.1
2017-Mar-14 15:31N 54°29' E 018°53'0 0.0
2017-Mar-14 14:31N 54°29' E 018°53'0 0.0
2017-Mar-14 13:31N 54°29' E 018°53'0 0.0
2017-Mar-14 12:31N 54°29' E 018°53'7 7.8
2017-Mar-14 11:33N 54°27' E 018°41'3 2.9
2017-Mar-14 10:31N 54°24' E 018°40'0 0.0
2017-Mar-14 09:31N 54°24' E 018°40'0 0.0
2017-Mar-14 08:28N 54°24' E 018°40'0 0.0
2017-Mar-14 07:31N 54°24' E 018°40'0 0.0
2017-Mar-14 06:31N 54°24' E 018°40'0 0.0
2017-Mar-14 05:31N 54°24' E 018°40'0 0.0
2017-Mar-14 04:31N 54°24' E 018°40'0 0.0
2017-Mar-14 03:31N 54°24' E 018°40'0 0.0
2017-Mar-14 02:31N 54°24' E 018°40'0 0.0
2017-Mar-14 01:31N 54°24' E 018°40'0 0.0
2017-Mar-14 00:31N 54°24' E 018°40'0 0.0
2017-Mar-13 23:31N 54°24' E 018°40'0 0.0
2017-Mar-13 22:31N 54°24' E 018°40'0 0.0
2017-Mar-13 21:31N 54°24' E 018°40'0 0.0
2017-Mar-13 20:31N 54°24' E 018°40'  

Dump ship's entire track history